createdAt,value
2018-03-14T00:00:11.189Z,0.00
2018-03-14T00:01:11.174Z,0.00
2018-03-14T00:02:11.160Z,0.00
2018-03-14T00:03:11.146Z,0.00
2018-03-14T00:04:11.133Z,0.00
2018-03-14T00:05:11.138Z,0.00
2018-03-14T00:06:11.111Z,0.00
2018-03-14T00:07:11.368Z,0.00
2018-03-14T00:08:11.078Z,0.00
2018-03-14T00:09:11.061Z,0.00
2018-03-14T00:10:11.046Z,0.00
2018-03-14T00:11:11.036Z,0.00
2018-03-14T00:12:11.055Z,0.00
2018-03-14T00:13:11.008Z,0.00
2018-03-14T00:14:10.989Z,0.00
2018-03-14T00:15:10.982Z,0.00
2018-03-14T00:16:10.963Z,0.00
2018-03-14T00:17:10.947Z,0.00
2018-03-14T00:18:10.933Z,0.00
2018-03-14T00:19:10.919Z,0.00
2018-03-14T00:20:10.907Z,0.00
2018-03-14T00:21:10.891Z,0.00
2018-03-14T00:22:10.883Z,0.00
2018-03-14T00:23:10.863Z,0.00
2018-03-14T00:24:10.876Z,0.00
2018-03-14T00:25:10.843Z,0.00
2018-03-14T00:26:10.877Z,0.00
2018-03-14T00:27:10.808Z,0.00
2018-03-14T00:28:10.793Z,0.00
2018-03-14T00:29:10.814Z,0.00
2018-03-14T00:30:10.764Z,0.00
2018-03-14T00:31:10.756Z,0.00
2018-03-14T00:32:10.785Z,0.00
2018-03-14T00:33:10.726Z,0.00
2018-03-14T00:34:10.708Z,0.00
2018-03-14T00:35:10.725Z,0.00
2018-03-14T00:36:10.680Z,0.00
2018-03-14T00:37:10.665Z,0.00
2018-03-14T00:38:10.653Z,0.00
2018-03-14T00:39:10.638Z,0.00
2018-03-14T00:40:10.624Z,0.00
2018-03-14T00:41:10.611Z,0.00
2018-03-14T00:42:10.596Z,0.00
2018-03-14T00:43:10.588Z,0.00
2018-03-14T00:44:10.603Z,0.00
2018-03-14T00:45:10.555Z,0.00
2018-03-14T00:46:10.539Z,0.00
2018-03-14T00:47:10.529Z,0.00
2018-03-14T00:48:10.511Z,0.00
2018-03-14T00:49:10.502Z,0.00
2018-03-14T00:50:10.518Z,0.00
2018-03-14T00:51:10.471Z,0.00
2018-03-14T00:52:10.455Z,0.00
2018-03-14T00:53:10.444Z,0.00
2018-03-14T00:54:10.425Z,0.00
2018-03-14T00:55:10.412Z,0.00
2018-03-14T00:56:10.398Z,0.00
2018-03-14T00:57:10.382Z,0.00
2018-03-14T00:58:10.369Z,0.00
2018-03-14T00:59:10.355Z,0.00
2018-03-14T01:00:10.340Z,0.00
2018-03-14T01:01:10.325Z,0.00
2018-03-14T01:02:10.338Z,0.00
2018-03-14T01:03:10.306Z,0.00
2018-03-14T01:04:10.340Z,0.00
2018-03-14T01:05:10.273Z,0.00
2018-03-14T01:06:10.254Z,0.00
2018-03-14T01:07:10.268Z,0.00
2018-03-14T01:08:10.226Z,0.00
2018-03-14T01:09:10.219Z,0.00
2018-03-14T01:10:10.211Z,0.00
2018-03-14T01:11:10.182Z,0.00
2018-03-14T01:12:10.213Z,0.00
2018-03-14T01:13:10.152Z,0.00
2018-03-14T01:14:10.138Z,0.00
2018-03-14T01:15:10.139Z,0.00
2018-03-14T01:16:10.110Z,0.00
2018-03-14T01:17:10.094Z,0.00
2018-03-14T01:18:10.080Z,0.00
2018-03-14T01:19:10.066Z,0.00
2018-03-14T01:20:10.051Z,0.00
2018-03-14T01:21:10.036Z,0.00
2018-03-14T01:22:10.035Z,0.00
2018-03-14T01:23:10.007Z,0.00
2018-03-14T01:24:10.016Z,0.00
2018-03-14T01:25:09.977Z,0.00
2018-03-14T01:26:09.963Z,0.00
2018-03-14T01:27:09.949Z,0.00
2018-03-14T01:28:09.934Z,0.00
2018-03-14T01:29:09.922Z,0.00
2018-03-14T01:30:09.935Z,0.00
2018-03-14T01:31:09.893Z,0.00
2018-03-14T01:32:09.876Z,0.00
2018-03-14T01:33:09.862Z,0.00
2018-03-14T01:34:09.845Z,0.00
2018-03-14T01:35:09.830Z,0.00
2018-03-14T01:36:09.817Z,0.00
2018-03-14T01:37:09.801Z,0.00
2018-03-14T01:38:09.787Z,0.00
2018-03-14T01:39:09.774Z,0.00
2018-03-14T01:40:09.758Z,0.00
2018-03-14T01:41:09.742Z,0.00
2018-03-14T01:42:09.758Z,0.00
2018-03-14T01:43:09.717Z,0.00
2018-03-14T01:44:09.922Z,0.00
2018-03-14T01:45:09.686Z,0.00
2018-03-14T01:46:09.668Z,0.00
2018-03-14T01:47:09.706Z,0.00
2018-03-14T01:48:09.639Z,0.00
2018-03-14T01:49:09.633Z,0.00
2018-03-14T01:50:09.667Z,0.00
2018-03-14T01:51:09.603Z,0.00
2018-03-14T01:52:09.580Z,0.00
2018-03-14T01:53:09.598Z,0.00
2018-03-14T01:54:09.550Z,0.00
2018-03-14T01:55:09.536Z,0.00
2018-03-14T01:56:09.525Z,0.00
2018-03-14T01:57:09.506Z,0.00
2018-03-14T01:58:09.491Z,0.00
2018-03-14T01:59:09.478Z,0.00
2018-03-14T02:00:09.462Z,0.00
2018-03-14T02:01:09.446Z,0.00
2018-03-14T02:02:09.454Z,0.00
2018-03-14T02:03:09.431Z,0.00
2018-03-14T02:04:09.403Z,0.00
2018-03-14T02:05:09.404Z,0.00
2018-03-14T02:06:09.373Z,0.00
2018-03-14T02:07:09.358Z,0.00
2018-03-14T02:08:09.343Z,0.00
2018-03-14T02:09:09.345Z,0.00
2018-03-14T02:10:09.320Z,0.00
2018-03-14T02:11:09.298Z,0.00
2018-03-14T02:12:09.293Z,0.00
2018-03-14T02:13:09.267Z,0.00
2018-03-14T02:14:09.252Z,0.00
2018-03-14T02:15:09.238Z,0.00
2018-03-14T02:16:09.222Z,0.00
2018-03-14T02:17:09.207Z,0.00
2018-03-14T02:18:09.192Z,0.00
2018-03-14T02:19:09.178Z,0.00
2018-03-14T02:20:09.163Z,0.00
2018-03-14T02:21:09.147Z,0.00
2018-03-14T02:22:09.143Z,0.00
2018-03-14T02:23:09.118Z,0.00
2018-03-14T02:24:09.123Z,0.00
2018-03-14T02:25:09.141Z,0.00
2018-03-14T02:26:09.283Z,0.00
2018-03-14T02:27:09.058Z,0.00
2018-03-14T02:28:09.043Z,0.00
2018-03-14T02:29:09.050Z,0.00
2018-03-14T02:30:09.037Z,0.00
2018-03-14T02:31:08.998Z,0.00
2018-03-14T02:32:09.036Z,0.00
2018-03-14T02:33:08.968Z,0.00
2018-03-14T02:34:08.953Z,0.00
2018-03-14T02:35:08.964Z,0.00
2018-03-14T02:36:08.923Z,0.00
2018-03-14T02:37:08.908Z,0.00
2018-03-14T02:38:08.892Z,0.00
2018-03-14T02:39:08.879Z,0.00
2018-03-14T02:40:08.863Z,0.00
2018-03-14T02:41:08.847Z,0.00
2018-03-14T02:42:08.834Z,0.00
2018-03-14T02:43:08.824Z,0.00
2018-03-14T02:44:08.832Z,0.00
2018-03-14T02:45:08.792Z,0.00
2018-03-14T02:46:08.772Z,0.00
2018-03-14T02:47:08.765Z,0.00
2018-03-14T02:48:08.742Z,0.00
2018-03-14T02:49:08.728Z,0.00
2018-03-14T02:50:08.711Z,0.00
2018-03-14T02:51:08.709Z,0.00
2018-03-14T02:52:08.682Z,0.00
2018-03-14T02:53:08.679Z,0.00
2018-03-14T02:54:08.651Z,0.00
2018-03-14T02:55:08.636Z,0.00
2018-03-14T02:56:08.621Z,0.00
2018-03-14T02:57:08.605Z,0.00
2018-03-14T02:58:08.595Z,0.00
2018-03-14T02:59:08.575Z,0.00
2018-03-14T03:00:08.560Z,0.00
2018-03-14T03:01:08.546Z,0.00
2018-03-14T03:02:08.530Z,0.00
2018-03-14T03:03:08.520Z,0.00
2018-03-14T03:04:08.500Z,0.00
2018-03-14T03:05:08.563Z,0.00
2018-03-14T03:06:08.469Z,0.00
2018-03-14T03:07:08.670Z,0.00
2018-03-14T03:08:08.439Z,0.00
2018-03-14T03:09:08.423Z,0.00
2018-03-14T03:10:08.408Z,0.00
2018-03-14T03:11:08.400Z,0.00
2018-03-14T03:12:08.379Z,0.00
2018-03-14T03:13:08.386Z,0.00
2018-03-14T03:14:08.348Z,0.00
2018-03-14T03:15:08.338Z,0.00
2018-03-14T03:16:08.318Z,0.00
2018-03-14T03:17:08.301Z,0.00
2018-03-14T03:18:08.286Z,0.00
2018-03-14T03:19:08.273Z,0.00
2018-03-14T03:20:08.257Z,0.00
2018-03-14T03:21:08.241Z,0.00
2018-03-14T03:22:08.226Z,0.00
2018-03-14T03:23:08.211Z,0.00
2018-03-14T03:24:08.201Z,0.00
2018-03-14T03:25:08.234Z,0.00
2018-03-14T03:26:08.175Z,0.00
2018-03-14T03:27:08.213Z,0.00
2018-03-14T03:28:08.144Z,0.00
2018-03-14T03:29:08.119Z,0.00
2018-03-14T03:30:08.144Z,0.00
2018-03-14T03:31:08.091Z,0.00
2018-03-14T03:32:08.074Z,0.00
2018-03-14T03:33:08.074Z,0.00
2018-03-14T03:34:08.061Z,0.00
2018-03-14T03:35:08.028Z,0.00
2018-03-14T03:36:08.226Z,0.00
2018-03-14T03:37:07.998Z,0.00
2018-03-14T03:38:07.983Z,0.00
2018-03-14T03:39:07.988Z,0.00
2018-03-14T03:40:07.953Z,0.00
2018-03-14T03:41:07.937Z,0.00
2018-03-14T03:42:07.922Z,0.00
2018-03-14T03:43:07.906Z,0.00
2018-03-14T03:44:07.892Z,0.00
2018-03-14T03:45:07.876Z,0.00
2018-03-14T03:46:07.868Z,0.00
2018-03-14T03:47:07.853Z,0.00
2018-03-14T03:48:07.867Z,0.00
2018-03-14T03:49:07.821Z,0.00
2018-03-14T03:50:07.800Z,0.00
2018-03-14T03:51:07.794Z,0.00
2018-03-14T03:52:07.776Z,0.00
2018-03-14T03:53:07.754Z,0.00
2018-03-14T03:54:07.764Z,0.00
2018-03-14T03:55:07.733Z,0.00
2018-03-14T03:56:07.709Z,0.00
2018-03-14T03:57:07.708Z,0.00
2018-03-14T03:58:07.677Z,0.00
2018-03-14T03:59:07.663Z,0.00
2018-03-14T04:00:07.648Z,0.00
2018-03-14T04:01:07.631Z,0.00
2018-03-14T04:02:07.616Z,0.00
2018-03-14T04:03:07.601Z,0.00
2018-03-14T04:04:07.586Z,0.00
2018-03-14T04:05:07.570Z,0.00
2018-03-14T04:06:07.554Z,0.00
2018-03-14T04:07:07.539Z,0.00
2018-03-14T04:08:07.525Z,0.00
2018-03-14T04:09:07.537Z,0.00
2018-03-14T04:10:07.553Z,0.00
2018-03-14T04:11:07.488Z,0.00
2018-03-14T04:12:07.462Z,0.00
2018-03-14T04:13:07.486Z,0.00
2018-03-14T04:14:07.438Z,0.00
2018-03-14T04:15:07.415Z,0.00
2018-03-14T04:16:07.412Z,0.00
2018-03-14T04:17:07.401Z,0.00
2018-03-14T04:18:07.370Z,0.00
2018-03-14T04:19:07.402Z,0.00
2018-03-14T04:20:07.339Z,0.00
2018-03-14T04:21:07.322Z,0.00
2018-03-14T04:22:07.329Z,0.00
2018-03-14T04:23:07.291Z,0.00
2018-03-14T04:24:07.278Z,0.00
2018-03-14T04:25:07.264Z,0.00
2018-03-14T04:26:07.248Z,0.00
2018-03-14T04:27:07.230Z,0.00
2018-03-14T04:28:07.214Z,0.00
2018-03-14T04:29:07.198Z,0.00
2018-03-14T04:30:07.192Z,0.00
2018-03-14T04:31:07.206Z,0.00
2018-03-14T04:32:07.157Z,0.00
2018-03-14T04:33:07.135Z,0.00
2018-03-14T04:34:07.135Z,0.00
2018-03-14T04:35:07.104Z,0.00
2018-03-14T04:36:07.088Z,0.00
2018-03-14T04:37:07.073Z,0.00
2018-03-14T04:38:07.074Z,0.00
2018-03-14T04:39:07.042Z,0.00
2018-03-14T04:40:07.048Z,0.00
2018-03-14T04:41:07.010Z,0.00
2018-03-14T04:42:06.994Z,0.00
2018-03-14T04:43:06.978Z,0.00
2018-03-14T04:44:06.965Z,0.00
2018-03-14T04:45:06.947Z,0.00
2018-03-14T04:46:06.932Z,0.00
2018-03-14T04:47:06.915Z,0.00
2018-03-14T04:48:06.902Z,0.00
2018-03-14T04:49:06.890Z,0.00
2018-03-14T04:50:06.868Z,0.00
2018-03-14T04:51:06.853Z,0.00
2018-03-14T04:52:06.868Z,0.00
2018-03-14T04:53:06.832Z,0.00
2018-03-14T04:54:07.031Z,0.00
2018-03-14T04:55:06.801Z,0.00
2018-03-14T04:56:06.774Z,0.00
2018-03-14T04:57:06.795Z,0.00
2018-03-14T04:58:06.742Z,0.00
2018-03-14T04:59:06.726Z,0.00
2018-03-14T05:00:06.727Z,0.00
2018-03-14T05:01:06.699Z,0.00
2018-03-14T05:02:06.679Z,0.00
2018-03-14T05:03:06.872Z,0.00
2018-03-14T05:04:06.647Z,0.00
2018-03-14T05:05:06.631Z,0.00
2018-03-14T05:06:06.638Z,0.00
2018-03-14T05:07:06.599Z,0.00
2018-03-14T05:08:06.591Z,0.00
2018-03-14T05:09:06.567Z,0.00
2018-03-14T05:10:06.552Z,0.00
2018-03-14T05:11:06.536Z,0.00
2018-03-14T05:12:06.520Z,0.00
2018-03-14T05:13:06.504Z,0.00
2018-03-14T05:14:06.496Z,0.00
2018-03-14T05:15:06.473Z,0.00
2018-03-14T05:16:06.486Z,0.00
2018-03-14T05:17:06.441Z,0.00
2018-03-14T05:18:06.655Z,0.00
2018-03-14T05:19:06.413Z,4.00
2018-03-14T05:20:06.394Z,4.00
2018-03-14T05:21:06.409Z,4.00
2018-03-14T05:22:06.362Z,0.00
2018-03-14T05:23:06.346Z,4.00
2018-03-14T05:24:06.331Z,4.00
2018-03-14T05:25:06.332Z,8.00
2018-03-14T05:26:06.321Z,4.00
2018-03-14T05:27:06.290Z,4.00
2018-03-14T05:29:06.251Z,8.00
2018-03-14T05:30:06.482Z,12.00
2018-03-14T05:31:06.228Z,12.00
2018-03-14T05:32:06.271Z,16.00
2018-03-14T05:33:06.218Z,12.00
2018-03-14T05:34:06.177Z,16.00
2018-03-14T05:35:06.381Z,20.00
2018-03-14T05:36:06.142Z,24.00
2018-03-14T05:37:06.135Z,28.00
2018-03-14T05:38:06.141Z,32.00
2018-03-14T05:39:06.125Z,36.00
2018-03-14T05:40:06.080Z,40.00
2018-03-14T05:41:06.291Z,48.00
2018-03-14T05:42:06.048Z,56.00
2018-03-14T05:43:06.032Z,68.00
2018-03-14T05:44:06.058Z,76.00
2018-03-14T05:45:06.003Z,88.00
2018-03-14T05:46:05.986Z,100.00
2018-03-14T05:47:06.029Z,116.00
2018-03-14T05:48:05.957Z,128.00
2018-03-14T05:49:05.940Z,144.00
2018-03-14T05:50:05.950Z,164.00
2018-03-14T05:51:05.910Z,184.00
2018-03-14T05:52:05.896Z,204.00
2018-03-14T05:53:05.878Z,224.00
2018-03-14T05:54:05.869Z,244.00
2018-03-14T05:55:05.849Z,272.00
2018-03-14T05:56:05.873Z,296.00
2018-03-14T05:57:05.824Z,328.00
2018-03-14T05:58:05.882Z,360.00
2018-03-14T05:59:05.849Z,388.00
2018-03-14T06:00:05.773Z,432.00
2018-03-14T06:01:05.756Z,468.00
2018-03-14T06:02:05.813Z,520.00
2018-03-14T06:03:05.726Z,564.00
2018-03-14T06:04:05.712Z,616.00
2018-03-14T06:05:05.746Z,656.00
2018-03-14T06:06:05.681Z,700.00
2018-03-14T06:07:05.669Z,744.00
2018-03-14T06:08:05.692Z,780.00
2018-03-14T06:09:05.634Z,836.00
2018-03-14T06:10:05.828Z,892.00
2018-03-14T06:11:05.605Z,956.00
2018-03-14T06:12:05.590Z,1032.00
2018-03-14T06:14:05.559Z,1184.00
2018-03-14T06:15:05.545Z,1240.00
2018-03-14T06:16:05.571Z,1276.00
2018-03-14T06:17:05.514Z,1292.00
2018-03-14T06:18:05.499Z,1308.00
2018-03-14T06:19:05.530Z,1280.00
2018-03-14T06:20:05.468Z,1284.00
2018-03-14T06:21:05.452Z,1300.00
2018-03-14T06:22:05.437Z,1340.00
2018-03-14T06:23:05.422Z,1404.00
2018-03-14T06:24:05.407Z,1436.00
2018-03-14T06:25:05.391Z,1452.00
2018-03-14T06:26:05.376Z,1492.00
2018-03-14T06:27:05.361Z,1516.00
2018-03-14T06:28:05.346Z,1476.00
2018-03-14T06:29:05.330Z,1500.00
2018-03-14T06:30:05.392Z,1520.00
2018-03-14T06:31:05.301Z,1596.00
2018-03-14T06:32:05.286Z,1612.00
2018-03-14T06:33:05.473Z,1620.00
2018-03-14T06:34:05.257Z,1668.00
2018-03-14T06:35:05.240Z,1724.00
2018-03-14T06:36:05.429Z,1792.00
2018-03-14T06:37:05.211Z,1928.00
2018-03-14T06:38:05.196Z,2020.00
2018-03-14T06:39:05.225Z,2104.00
2018-03-14T06:40:05.164Z,2372.00
2018-03-14T06:41:05.149Z,2672.00
2018-03-14T06:42:05.153Z,2812.00
2018-03-14T06:43:05.118Z,2912.00
2018-03-14T06:44:05.103Z,2980.00
2018-03-14T06:45:05.087Z,2992.00
2018-03-14T06:46:05.071Z,3024.00
2018-03-14T06:47:05.057Z,3076.00
2018-03-14T06:48:05.044Z,3156.00
2018-03-14T06:49:05.030Z,3236.00
2018-03-14T06:50:05.011Z,3300.00
2018-03-14T06:51:05.014Z,3336.00
2018-03-14T06:52:05.025Z,3348.00
2018-03-14T06:53:05.169Z,3364.00
2018-03-14T06:54:04.950Z,3396.00
2018-03-14T06:55:04.936Z,3452.00
2018-03-14T06:57:04.906Z,3716.00
2018-03-14T06:58:04.897Z,3872.00
2018-03-14T06:59:04.977Z,3980.00
2018-03-14T07:00:04.860Z,4044.00
2018-03-14T07:01:04.844Z,4156.00
2018-03-14T07:02:04.920Z,4304.00
2018-03-14T07:03:04.815Z,4424.00
2018-03-14T07:04:04.800Z,4500.00
2018-03-14T07:05:04.830Z,4640.00
2018-03-14T07:06:04.770Z,4764.00
2018-03-14T07:07:04.756Z,4864.00
2018-03-14T07:08:04.741Z,5024.00
2018-03-14T07:09:04.726Z,5204.00
2018-03-14T07:10:04.915Z,5352.00
2018-03-14T07:11:04.698Z,5428.00
2018-03-14T07:12:04.683Z,5452.00
2018-03-14T07:13:04.872Z,5440.00
2018-03-14T07:14:04.658Z,5444.00
2018-03-14T07:15:04.640Z,5460.00
2018-03-14T07:16:04.828Z,5456.00
2018-03-14T07:17:04.612Z,5440.00
2018-03-14T07:18:04.597Z,5464.00
2018-03-14T07:19:04.625Z,5572.00
2018-03-14T07:20:04.572Z,5648.00
2018-03-14T07:21:04.554Z,5700.00
2018-03-14T07:22:04.540Z,5824.00
2018-03-14T07:23:04.533Z,6104.00
2018-03-14T07:24:04.517Z,6308.00
2018-03-14T07:25:04.498Z,6340.00
2018-03-14T07:26:04.484Z,6552.00
2018-03-14T07:27:04.474Z,7132.00
2018-03-14T07:28:04.457Z,7804.00
2018-03-14T07:29:04.442Z,8176.00
2018-03-14T07:30:04.631Z,8172.00
2018-03-14T07:31:04.419Z,8268.00
2018-03-14T07:32:04.405Z,8324.00
2018-03-14T07:33:04.450Z,8016.00
2018-03-14T07:34:04.375Z,7856.00
2018-03-14T07:35:04.364Z,8484.00
2018-03-14T07:36:04.393Z,9500.00
2018-03-14T07:37:04.336Z,11416.00
2018-03-14T07:38:04.324Z,19904.00
2018-03-14T07:39:04.332Z,28960.00
2018-03-14T07:40:04.298Z,35872.00
2018-03-14T07:41:04.285Z,27296.00
2018-03-14T07:42:04.273Z,25216.00
2018-03-14T07:43:04.261Z,27520.00
2018-03-14T07:44:04.252Z,24768.00
2018-03-14T07:45:04.239Z,24640.00
2018-03-14T07:46:04.227Z,25408.00
2018-03-14T07:47:04.473Z,16832.00
2018-03-14T07:48:04.204Z,11256.00
2018-03-14T07:49:04.192Z,13984.00
2018-03-14T07:50:04.290Z,16608.00
2018-03-14T07:51:04.190Z,18496.00
2018-03-14T07:52:04.162Z,20288.00
2018-03-14T07:53:04.181Z,24448.00
2018-03-14T07:54:04.142Z,13088.00
2018-03-14T07:55:04.129Z,22688.00
2018-03-14T07:56:04.122Z,20000.00
2018-03-14T07:57:04.107Z,20000.00
2018-03-14T07:58:04.098Z,20256.00
2018-03-14T07:59:04.114Z,18144.00
2018-03-14T08:00:04.080Z,20064.00
2018-03-14T08:01:04.281Z,18080.00
2018-03-14T08:02:04.062Z,15520.00
2018-03-14T08:03:04.055Z,15488.00
2018-03-14T08:04:04.253Z,12504.00
2018-03-14T08:05:04.038Z,10572.00
2018-03-14T08:06:04.030Z,9872.00
2018-03-14T08:07:04.060Z,9972.00
2018-03-14T08:08:04.014Z,9816.00
2018-03-14T08:09:04.006Z,9352.00
2018-03-14T08:10:03.994Z,8976.00
2018-03-14T08:11:03.985Z,9196.00
2018-03-14T08:12:03.979Z,9860.00
2018-03-14T08:13:03.967Z,10364.00
2018-03-14T08:14:04.007Z,10544.00
2018-03-14T08:15:03.946Z,10828.00
2018-03-14T08:16:04.027Z,10380.00
2018-03-14T08:17:03.925Z,9876.00
2018-03-14T08:18:03.916Z,10092.00
2018-03-14T08:19:03.959Z,10560.00
2018-03-14T08:20:03.897Z,10300.00
2018-03-14T08:21:03.886Z,9608.00
2018-03-14T08:22:03.917Z,9512.00
2018-03-14T08:23:03.866Z,9244.00
2018-03-14T08:24:03.857Z,8636.00
2018-03-14T08:25:03.888Z,8556.00
2018-03-14T08:26:03.835Z,8944.00
2018-03-14T08:27:03.825Z,9768.00
2018-03-14T08:28:03.815Z,10636.00
2018-03-14T08:29:03.807Z,10564.00
2018-03-14T08:30:03.865Z,10180.00
2018-03-14T08:31:03.785Z,9788.00
2018-03-14T08:32:03.775Z,9640.00
2018-03-14T08:34:03.752Z,10468.00
2018-03-14T08:35:03.742Z,10568.00
2018-03-14T08:36:03.765Z,10248.00
2018-03-14T08:37:03.720Z,9740.00
2018-03-14T08:38:03.712Z,9520.00
2018-03-14T08:39:03.749Z,9728.00
2018-03-14T08:40:03.689Z,10084.00
2018-03-14T08:41:03.677Z,10652.00
2018-03-14T08:42:03.667Z,11292.00
2018-03-14T08:43:03.657Z,11700.00
2018-03-14T08:44:03.647Z,11856.00
2018-03-14T08:45:03.635Z,11632.00
2018-03-14T08:46:03.625Z,11504.00
2018-03-14T08:47:03.624Z,11720.00
2018-03-14T08:48:03.605Z,12284.00
2018-03-14T08:49:03.596Z,12992.00
2018-03-14T08:50:03.696Z,13852.00
2018-03-14T08:51:03.576Z,15052.00
2018-03-14T08:52:03.563Z,16800.00
2018-03-14T08:53:03.602Z,18336.00
2018-03-14T08:54:03.543Z,18912.00
2018-03-14T08:55:03.533Z,18560.00
2018-03-14T08:56:03.536Z,18560.00
2018-03-14T08:57:03.514Z,18496.00
2018-03-14T08:58:03.503Z,18400.00
2018-03-14T08:59:03.496Z,17824.00
2018-03-14T09:00:03.484Z,17344.00
2018-03-14T09:01:03.676Z,17600.00
2018-03-14T09:02:03.463Z,19072.00
2018-03-14T09:03:03.454Z,20512.00
2018-03-14T09:04:03.652Z,22240.00
2018-03-14T09:05:03.438Z,26880.00
2018-03-14T09:06:03.428Z,23872.00
2018-03-14T09:07:03.461Z,25728.00
2018-03-14T09:08:03.410Z,39392.00
2018-03-14T09:09:03.402Z,42912.00
2018-03-14T09:10:03.392Z,67552.00
2018-03-14T09:11:03.431Z,63072.00
2018-03-14T09:12:03.378Z,60256.00
2018-03-14T09:13:03.374Z,71136.00
2018-03-14T09:14:03.385Z,34912.00
2018-03-14T09:15:03.361Z,50208.00
2018-03-14T09:16:03.357Z,30848.00
2018-03-14T09:17:03.353Z,19328.00
2018-03-14T09:18:03.347Z,18944.00
2018-03-14T09:19:03.432Z,17856.00
2018-03-14T09:20:03.339Z,14736.00
2018-03-14T09:21:03.334Z,14736.00
2018-03-14T09:22:03.532Z,20096.00
2018-03-14T09:23:03.324Z,29760.00
2018-03-14T09:24:03.323Z,29568.00
2018-03-14T09:25:03.316Z,25920.00
2018-03-14T09:26:03.306Z,42944.00
2018-03-14T09:27:03.301Z,55904.00
2018-03-14T09:28:03.298Z,25280.00
2018-03-14T09:29:03.289Z,32576.00
2018-03-14T09:30:03.307Z,40992.00
2018-03-14T09:31:03.280Z,50240.00
2018-03-14T09:32:03.275Z,52896.00
2018-03-14T09:33:03.472Z,47136.00
2018-03-14T09:34:03.266Z,43200.00
2018-03-14T09:35:03.263Z,60544.00
2018-03-14T09:36:03.265Z,55008.00
2018-03-14T09:37:03.254Z,68544.00
2018-03-14T09:38:03.253Z,62048.00
2018-03-14T09:39:03.250Z,69952.00
2018-03-14T09:40:03.249Z,63808.00
2018-03-14T09:41:03.341Z,66272.00
2018-03-14T09:42:03.259Z,65600.00
2018-03-14T09:43:03.246Z,69056.00
2018-03-14T09:44:03.291Z,65984.00
2018-03-14T09:45:03.248Z,63744.00
2018-03-14T09:46:03.280Z,60800.00
2018-03-14T09:47:03.252Z,74912.00
2018-03-14T09:48:03.251Z,57088.00
2018-03-14T09:49:03.257Z,54752.00
2018-03-14T09:50:03.254Z,73184.00
2018-03-14T09:51:03.258Z,65600.00
2018-03-14T09:52:03.464Z,66368.00
2018-03-14T09:53:03.266Z,72256.00
2018-03-14T09:54:03.266Z,64448.00
2018-03-14T09:55:03.317Z,73248.00
2018-03-14T09:56:03.273Z,66464.00
2018-03-14T09:57:03.281Z,26240.00
2018-03-14T09:58:03.280Z,71584.00
2018-03-14T09:59:03.283Z,57824.00
2018-03-14T10:00:03.293Z,80384.00
2018-03-14T10:01:03.290Z,84064.00
2018-03-14T10:02:03.294Z,78656.00
2018-03-14T10:03:03.539Z,88704.00
2018-03-14T10:04:03.302Z,66592.00
2018-03-14T10:05:03.306Z,70144.00
2018-03-14T10:06:03.319Z,84384.00
2018-03-14T10:07:03.316Z,77440.00
2018-03-14T10:08:03.321Z,13060.00
2018-03-14T10:09:03.340Z,70432.00
2018-03-14T10:10:03.531Z,43360.00
2018-03-14T10:11:03.333Z,25984.00
2018-03-14T10:12:03.334Z,28704.00
2018-03-14T10:13:03.539Z,50560.00
2018-03-14T10:14:03.361Z,31712.00
2018-03-14T10:15:03.344Z,12800.00
2018-03-14T10:16:03.344Z,28768.00
2018-03-14T10:17:03.341Z,66784.00
2018-03-14T10:18:03.347Z,71200.00
2018-03-14T10:19:03.346Z,87392.00
2018-03-14T10:20:03.342Z,78976.00
2018-03-14T10:21:03.365Z,85248.00
2018-03-14T10:22:03.343Z,79040.00
2018-03-14T10:23:03.344Z,88800.00
2018-03-14T10:24:03.401Z,83584.00
2018-03-14T10:25:03.352Z,69536.00
2018-03-14T10:26:03.351Z,82816.00
2018-03-14T10:27:03.353Z,18944.00
2018-03-14T10:28:03.357Z,61408.00
2018-03-14T10:29:03.402Z,87808.00
2018-03-14T10:30:03.363Z,64768.00
2018-03-14T10:31:03.370Z,27744.00
2018-03-14T10:32:03.571Z,13428.00
2018-03-14T10:33:03.375Z,12728.00
2018-03-14T10:34:03.372Z,13188.00
2018-03-14T10:35:03.405Z,12388.00
2018-03-14T10:36:03.377Z,13108.00
2018-03-14T10:37:03.373Z,12120.00
2018-03-14T10:38:03.373Z,11944.00
2018-03-14T10:39:03.372Z,11932.00
2018-03-14T10:40:03.466Z,13000.00
2018-03-14T10:41:03.373Z,14420.00
2018-03-14T10:42:03.365Z,17152.00
2018-03-14T10:43:03.436Z,42784.00
2018-03-14T10:44:03.360Z,100512.00
2018-03-14T10:45:03.357Z,43840.00
2018-03-14T10:47:03.352Z,29248.00
2018-03-14T10:48:03.350Z,94464.00
2018-03-14T10:49:03.348Z,93248.00
2018-03-14T10:50:03.344Z,83360.00
2018-03-14T10:51:03.343Z,101632.00
2018-03-14T10:52:03.344Z,89248.00
2018-03-14T10:53:03.342Z,89536.00
2018-03-14T10:54:03.423Z,89600.00
2018-03-14T10:55:03.349Z,76960.00
2018-03-14T10:56:03.398Z,85632.00
2018-03-14T10:57:03.398Z,89568.00
2018-03-14T10:58:03.352Z,86816.00
2018-03-14T10:59:03.355Z,87872.00
2018-03-14T11:00:03.359Z,89600.00
2018-03-14T11:01:03.363Z,77632.00
2018-03-14T11:02:03.404Z,95840.00
2018-03-14T11:03:03.372Z,74688.00
2018-03-14T11:04:03.376Z,95104.00
2018-03-14T11:05:03.583Z,86848.00
2018-03-14T11:06:03.386Z,84800.00
2018-03-14T11:07:03.394Z,93504.00
2018-03-14T11:08:03.396Z,83808.00
2018-03-14T11:09:03.403Z,48928.00
2018-03-14T11:10:03.407Z,85664.00
2018-03-14T11:11:03.411Z,76864.00
2018-03-14T11:12:03.416Z,85216.00
2018-03-14T11:13:03.421Z,77920.00
2018-03-14T11:14:03.427Z,88128.00
2018-03-14T11:15:03.528Z,16000.00
2018-03-14T11:16:03.439Z,15332.00
2018-03-14T11:17:03.446Z,41056.00
2018-03-14T11:18:03.486Z,82208.00
2018-03-14T11:19:03.454Z,49312.00
2018-03-14T11:20:03.457Z,17504.00
2018-03-14T11:21:03.459Z,14044.00
2018-03-14T11:22:03.458Z,21600.00
2018-03-14T11:23:03.528Z,16072.00
2018-03-14T11:24:03.464Z,21632.00
2018-03-14T11:25:03.462Z,14000.00
2018-03-14T11:26:03.660Z,9220.00
2018-03-14T11:27:03.455Z,8536.00
2018-03-14T11:28:03.488Z,7568.00
2018-03-14T11:29:03.453Z,6528.00
2018-03-14T11:30:03.446Z,6548.00
2018-03-14T11:31:03.442Z,6904.00
2018-03-14T11:32:03.439Z,7408.00
2018-03-14T11:33:03.437Z,7588.00
2018-03-14T11:34:03.475Z,8336.00
2018-03-14T11:35:03.429Z,10672.00
2018-03-14T11:36:03.420Z,13572.00
2018-03-14T11:37:03.455Z,19264.00
2018-03-14T11:38:03.411Z,20032.00
2018-03-14T11:39:03.406Z,17184.00
2018-03-14T11:40:03.401Z,17408.00
2018-03-14T11:41:03.396Z,16336.00
2018-03-14T11:42:03.392Z,14188.00
2018-03-14T11:43:03.390Z,13240.00
2018-03-14T11:44:03.384Z,10684.00
2018-03-14T11:45:03.407Z,8988.00
2018-03-14T11:46:03.376Z,9720.00
2018-03-14T11:47:03.372Z,15168.00
2018-03-14T11:48:03.422Z,16576.00
2018-03-14T11:49:03.362Z,17024.00
2018-03-14T11:50:03.358Z,19104.00
2018-03-14T11:51:03.378Z,24608.00
2018-03-14T11:52:03.354Z,51552.00
2018-03-14T11:53:03.353Z,17408.00
2018-03-14T11:54:03.352Z,12596.00
2018-03-14T11:55:03.348Z,11364.00
2018-03-14T11:56:03.580Z,11544.00
2018-03-14T11:57:03.342Z,48832.00
2018-03-14T11:58:03.340Z,68128.00
2018-03-14T11:59:03.440Z,65792.00
2018-03-14T12:00:03.335Z,58304.00
2018-03-14T12:01:03.332Z,63264.00
2018-03-14T12:02:03.375Z,11000.00
2018-03-14T12:03:03.329Z,10236.00
2018-03-14T12:04:03.332Z,8936.00
2018-03-14T12:05:03.326Z,8916.00
2018-03-14T12:06:03.324Z,46176.00
2018-03-14T12:07:03.321Z,10768.00
2018-03-14T12:08:03.318Z,8884.00
2018-03-14T12:09:03.314Z,7108.00
2018-03-14T12:10:03.312Z,8036.00
2018-03-14T12:11:03.307Z,49312.00
2018-03-14T12:12:03.304Z,62144.00
2018-03-14T12:13:03.299Z,59712.00
2018-03-14T12:14:03.298Z,58688.00
2018-03-14T12:15:03.293Z,55328.00
2018-03-14T12:16:03.388Z,56576.00
2018-03-14T12:17:03.288Z,30016.00
2018-03-14T12:18:03.287Z,41888.00
2018-03-14T12:19:03.325Z,9428.00
2018-03-14T12:20:03.286Z,6888.00
2018-03-14T12:21:03.283Z,6440.00
2018-03-14T12:22:03.278Z,11292.00
2018-03-14T12:23:03.275Z,14620.00
2018-03-14T12:24:03.273Z,33536.00
2018-03-14T12:25:03.269Z,57568.00
2018-03-14T12:26:03.266Z,58368.00
2018-03-14T12:27:03.345Z,54656.00
2018-03-14T12:28:03.263Z,54112.00
2018-03-14T12:29:03.257Z,52256.00
2018-03-14T12:30:03.305Z,11508.00
2018-03-14T12:31:03.255Z,48256.00
2018-03-14T12:32:03.252Z,49024.00
2018-03-14T12:33:03.252Z,49376.00
2018-03-14T12:34:03.251Z,48288.00